Time;durP1;ratioP1;P1;durP2;ratioP2;P2;SDS_P1;SDS_P2;PMS_P1;PMS_P2;Temp;Humidity;BMP_temperature;BMP_pressure;BME280_temperature;BME280_humidity;BME280_pressure;Samples;Min_cycle;Max_cycle;Signal;HPM_P1;HPM_P2
2021/05/31 00:01:33;;;;;;;41.45;26.67;;;;;;;;;;5043251;28;20334;-83
2021/05/31 00:04:00;;;;;;;46.55;25.88;;;;;;;;;;5043207;28;20564;-83
2021/05/31 00:06:27;;;;;;;42.60;25.52;;;;;;;;;;5043179;28;20103;-83
2021/05/31 00:08:53;;;;;;;48.00;26.20;;;;;;;;;;5043972;28;20088;-83
2021/05/31 00:11:20;;;;;;;52.88;27.70;;;;;;;;;;5043561;28;20054;-83
2021/05/31 00:13:48;;;;;;;44.95;25.90;;;;;;;;;;5042915;28;20053;-82
2021/05/31 00:16:14;;;;;;;41.97;26.13;;;;;;;;;;5044040;28;20114;-83
2021/05/31 00:18:41;;;;;;;42.70;24.75;;;;;;;;;;5041807;28;20087;-83
2021/05/31 00:21:08;;;;;;;47.00;26.10;;;;;;;;;;5042289;28;20045;-82
2021/05/31 00:23:34;;;;;;;46.97;25.60;;;;;;;;;;5043422;28;20055;-82
2021/05/31 00:26:01;;;;;;;41.42;24.27;;;;;;;;;;5037885;28;20050;-83
2021/05/31 00:28:27;;;;;;;48.67;25.27;;;;;;;;;;5041776;28;20344;-83
2021/05/31 00:30:54;;;;;;;47.70;26.85;;;;;;;;;;5041655;28;20053;-83
2021/05/31 00:33:21;;;;;;;45.75;26.55;;;;;;;;;;5041404;28;20056;-83
2021/05/31 00:35:50;;;;;;;50.47;27.73;;;;;;;;;;5041550;28;20428;-83
2021/05/31 00:38:17;;;;;;;43.88;26.23;;;;;;;;;;5041321;28;20488;-83
2021/05/31 00:40:43;;;;;;;51.85;28.08;;;;;;;;;;5040581;28;20049;-82
2021/05/31 00:43:10;;;;;;;47.47;26.00;;;;;;;;;;5040419;28;20059;-83
2021/05/31 00:45:37;;;;;;;44.45;25.85;;;;;;;;;;5040804;28;20321;-83
2021/05/31 00:48:03;;;;;;;44.78;25.45;;;;;;;;;;5040841;28;20115;-83
2021/05/31 00:50:30;;;;;;;36.78;23.40;;;;;;;;;;5040867;28;20096;-83
2021/05/31 00:52:57;;;;;;;41.20;23.45;;;;;;;;;;5040557;28;20508;-83
2021/05/31 00:55:23;;;;;;;42.10;23.63;;;;;;;;;;5023285;28;20140;-83
2021/05/31 00:57:50;;;;;;;39.38;23.25;;;;;;;;;;5021686;28;20065;-83
2021/05/31 01:00:17;;;;;;;36.17;21.13;;;;;;;;;;5021618;28;20054;-81
2021/05/31 01:02:43;;;;;;;37.35;22.45;;;;;;;;;;5021747;28;20058;-82
2021/05/31 01:05:10;;;;;;;41.33;23.50;;;;;;;;;;5020523;28;20053;-81
2021/05/31 01:07:40;;;;;;;43.20;24.13;;;;;;;;;;5030909;28;20109;-82
2021/05/31 01:10:14;;;;;;;45.90;23.65;;;;;;;;;;5041984;28;20517;-82
2021/05/31 01:12:49;;;;;;;38.15;23.67;;;;;;;;;;5039835;28;20137;-82
2021/05/31 01:15:18;;;;;;;39.25;23.33;;;;;;;;;;5041028;28;20057;-83
2021/05/31 01:17:51;;;;;;;40.47;23.73;;;;;;;;;;5040925;28;20424;-82
2021/05/31 01:20:24;;;;;;;37.13;23.13;;;;;;;;;;5041048;28;20057;-82
2021/05/31 01:22:51;;;;;;;42.35;24.63;;;;;;;;;;5020607;28;20494;-82
2021/05/31 01:25:37;;;;;;;42.40;23.13;;;;;;;;;;5022273;28;20053;-82
2021/05/31 01:28:12;;;;;;;36.63;24.55;;;;;;;;;;5023110;28;20081;-82
2021/05/31 01:30:42;;;;;;;44.55;26.10;;;;;;;;;;5034395;28;20076;-81
2021/05/31 01:33:12;;;;;;;42.47;24.48;;;;;;;;;;5030038;28;20073;-82
2021/05/31 01:35:39;;;;;;;43.38;24.08;;;;;;;;;;5035949;28;20060;-82
2021/05/31 01:38:06;;;;;;;42.55;25.30;;;;;;;;;;5042816;28;20049;-82
2021/05/31 01:40:33;;;;;;;47.88;27.25;;;;;;;;;;5042301;28;20064;-82
2021/05/31 01:43:01;;;;;;;43.67;27.20;;;;;;;;;;5043641;28;20428;-81
2021/05/31 01:45:31;;;;;;;51.58;27.42;;;;;;;;;;5043743;28;20053;-82
2021/05/31 01:47:58;;;;;;;46.03;25.95;;;;;;;;;;5040525;28;20049;-82
2021/05/31 01:50:26;;;;;;;48.22;26.42;;;;;;;;;;5023708;28;20061;-82
2021/05/31 01:52:53;;;;;;;48.50;27.33;;;;;;;;;;5023603;28;20053;-82
2021/05/31 01:55:21;;;;;;;57.90;29.05;;;;;;;;;;5032219;28;20054;-81
2021/05/31 01:57:49;;;;;;;55.13;27.88;;;;;;;;;;5037085;28;20064;-81
2021/05/31 02:00:16;;;;;;;51.47;28.92;;;;;;;;;;5036377;28;20061;-81
2021/05/31 02:02:47;;;;;;;50.20;28.15;;;;;;;;;;5035370;28;20069;-82
2021/05/31 02:05:15;;;;;;;46.13;27.95;;;;;;;;;;5035406;28;20034;-81
2021/05/31 02:07:42;;;;;;;68.78;34.05;;;;;;;;;;5025827;28;20050;-82
2021/05/31 02:10:10;;;;;;;67.57;34.63;;;;;;;;;;5024510;28;20054;-82
2021/05/31 02:12:43;;;;;;;71.97;34.60;;;;;;;;;;5022393;28;20049;-82
2021/05/31 02:15:11;;;;;;;68.25;35.28;;;;;;;;;;5023516;28;20061;-82
2021/05/31 02:17:42;;;;;;;63.38;34.30;;;;;;;;;;5041083;28;20116;-82
2021/05/31 02:20:11;;;;;;;71.43;33.25;;;;;;;;;;5042354;28;20049;-84
2021/05/31 02:22:39;;;;;;;60.53;34.28;;;;;;;;;;5041702;28;20060;-82
2021/05/31 02:25:06;;;;;;;64.15;34.17;;;;;;;;;;5040565;28;20113;-83
2021/05/31 02:27:33;;;;;;;64.35;31.48;;;;;;;;;;5041246;28;20050;-82
2021/05/31 02:30:00;;;;;;;60.03;32.08;;;;;;;;;;5041742;28;20063;-83
2021/05/31 02:32:31;;;;;;;56.20;31.50;;;;;;;;;;5041953;28;20061;-82
2021/05/31 02:34:58;;;;;;;59.28;30.20;;;;;;;;;;5042187;28;20045;-82
2021/05/31 02:37:35;;;;;;;56.63;30.13;;;;;;;;;;5042820;28;20041;-82
2021/05/31 02:40:03;;;;;;;58.95;30.75;;;;;;;;;;5043198;28;20055;-82
2021/05/31 02:42:36;;;;;;;69.88;30.70;;;;;;;;;;5042621;28;20071;-82
2021/05/31 02:45:03;;;;;;;52.10;30.30;;;;;;;;;;5042777;28;20053;-82
2021/05/31 02:47:29;;;;;;;53.20;30.48;;;;;;;;;;5043328;28;20056;-82
2021/05/31 02:49:56;;;;;;;85.22;31.42;;;;;;;;;;5043517;28;20056;-82
2021/05/31 02:52:23;;;;;;;104.18;30.65;;;;;;;;;;5042119;28;20053;-82
2021/05/31 02:54:49;;;;;;;58.22;30.95;;;;;;;;;;5042499;28;20061;-82
2021/05/31 02:57:16;;;;;;;65.00;30.45;;;;;;;;;;5042158;28;20060;-82
2021/05/31 02:59:43;;;;;;;57.33;32.15;;;;;;;;;;5041684;28;20058;-82
2021/05/31 03:02:09;;;;;;;63.78;31.33;;;;;;;;;;5041629;28;20049;-81
2021/05/31 03:04:36;;;;;;;60.75;31.55;;;;;;;;;;5042367;28;20328;-81
2021/05/31 03:07:03;;;;;;;51.03;30.23;;;;;;;;;;5053476;28;20052;-79
2021/05/31 03:09:29;;;;;;;59.92;28.20;;;;;;;;;;5057213;28;20045;-82
2021/05/31 03:11:56;;;;;;;45.75;28.65;;;;;;;;;;5042310;28;20053;-81
2021/05/31 03:14:23;;;;;;;50.75;28.98;;;;;;;;;;5039200;28;20053;-81
2021/05/31 03:16:50;;;;;;;44.15;27.70;;;;;;;;;;5038993;28;20059;-82
2021/05/31 03:19:17;;;;;;;84.00;30.20;;;;;;;;;;5038347;28;20391;-82
2021/05/31 03:21:49;;;;;;;51.47;29.50;;;;;;;;;;5039480;28;20053;-82
2021/05/31 03:24:16;;;;;;;52.53;28.60;;;;;;;;;;5038668;28;20056;-81
2021/05/31 03:26:43;;;;;;;51.20;28.42;;;;;;;;;;5039428;28;20322;-82
2021/05/31 03:29:10;;;;;;;49.60;27.83;;;;;;;;;;5042623;28;20077;-82
2021/05/31 03:31:37;;;;;;;46.20;28.60;;;;;;;;;;5044259;28;20089;-83
2021/05/31 03:34:04;;;;;;;47.03;27.90;;;;;;;;;;5038136;28;20209;-83
2021/05/31 03:36:31;;;;;;;45.75;27.40;;;;;;;;;;5038022;28;20210;-82
2021/05/31 03:38:58;;;;;;;51.22;28.75;;;;;;;;;;5040217;28;20077;-82
2021/05/31 03:41:24;;;;;;;45.60;27.85;;;;;;;;;;5039989;28;20406;-82
2021/05/31 03:43:51;;;;;;;46.90;28.52;;;;;;;;;;5038635;28;20049;-81
2021/05/31 03:46:17;;;;;;;46.47;27.15;;;;;;;;;;5039080;28;20054;-81
2021/05/31 03:48:45;;;;;;;47.38;28.17;;;;;;;;;;5039590;28;20045;-81
2021/05/31 03:51:13;;;;;;;48.47;29.48;;;;;;;;;;5039537;28;20462;-82
2021/05/31 03:53:39;;;;;;;50.85;29.33;;;;;;;;;;5037646;28;20049;-81
2021/05/31 03:56:07;;;;;;;47.25;28.25;;;;;;;;;;5038619;28;20049;-82
2021/05/31 03:58:34;;;;;;;57.58;29.13;;;;;;;;;;5038433;28;20330;-83
2021/05/31 04:01:02;;;;;;;44.97;28.65;;;;;;;;;;5038092;28;20156;-82
2021/05/31 04:03:30;;;;;;;40.95;26.48;;;;;;;;;;5037907;28;20050;-82
2021/05/31 04:11:36;;;;;;;35.60;24.55;;;;;;;;;;5019328;28;20057;-82
2021/05/31 04:14:08;;;;;;;34.20;23.27;;;;;;;;;;5018557;28;20080;-82
2021/05/31 04:16:35;;;;;;;34.00;23.77;;;;;;;;;;5018760;28;20287;-82
2021/05/31 04:19:02;;;;;;;36.22;23.00;;;;;;;;;;5022327;28;20115;-81
2021/05/31 04:21:29;;;;;;;35.50;22.70;;;;;;;;;;5034785;28;20064;-82
2021/05/31 04:23:56;;;;;;;32.03;21.42;;;;;;;;;;5042835;28;20053;-82
2021/05/31 04:26:25;;;;;;;29.65;20.90;;;;;;;;;;5042873;28;20072;-81
2021/05/31 04:28:52;;;;;;;29.35;19.40;;;;;;;;;;5026965;28;20096;-81
2021/05/31 04:31:19;;;;;;;25.52;17.38;;;;;;;;;;5047388;28;20228;-81
2021/05/31 04:33:49;;;;;;;27.30;19.17;;;;;;;;;;5043296;28;20096;-83
2021/05/31 04:36:16;;;;;;;25.83;16.75;;;;;;;;;;5041107;28;20175;-82
2021/05/31 04:38:43;;;;;;;21.10;15.05;;;;;;;;;;5040181;28;20060;-81
2021/05/31 04:41:09;;;;;;;19.35;15.45;;;;;;;;;;5040678;28;20045;-81
2021/05/31 04:43:42;;;;;;;19.95;13.50;;;;;;;;;;5040911;28;20501;-83
2021/05/31 04:46:08;;;;;;;24.42;15.25;;;;;;;;;;5041977;28;20077;-82
2021/05/31 04:48:35;;;;;;;16.88;13.63;;;;;;;;;;5021540;28;20064;-82
2021/05/31 04:51:02;;;;;;;18.10;14.05;;;;;;;;;;5018916;28;20061;-81
2021/05/31 04:53:29;;;;;;;18.40;14.05;;;;;;;;;;5020198;28;20131;-83
2021/05/31 04:55:57;;;;;;;18.98;13.23;;;;;;;;;;5019761;28;20053;-83
2021/05/31 04:58:24;;;;;;;15.48;12.82;;;;;;;;;;5030539;28;20053;-83
2021/05/31 05:00:52;;;;;;;15.65;13.10;;;;;;;;;;5038447;28;20046;-83
2021/05/31 05:03:18;;;;;;;17.20;12.43;;;;;;;;;;5037303;28;20191;-83
2021/05/31 05:05:46;;;;;;;17.88;13.13;;;;;;;;;;5039325;28;20045;-83
2021/05/31 05:08:13;;;;;;;15.98;12.10;;;;;;;;;;5039933;28;20422;-83
2021/05/31 05:10:40;;;;;;;15.82;12.00;;;;;;;;;;5041119;28;20059;-83
2021/05/31 05:13:07;;;;;;;18.77;12.57;;;;;;;;;;5038279;28;20055;-83
2021/05/31 05:15:34;;;;;;;15.80;12.20;;;;;;;;;;5036067;28;20169;-83
2021/05/31 05:18:01;;;;;;;16.92;12.48;;;;;;;;;;5018430;28;20046;-81
2021/05/31 05:20:29;;;;;;;13.68;11.50;;;;;;;;;;5018301;28;20049;-82
2021/05/31 05:22:56;;;;;;;13.27;10.80;;;;;;;;;;5018303;28;20133;-82
2021/05/31 05:25:23;;;;;;;14.18;10.98;;;;;;;;;;5035155;28;20115;-82
2021/05/31 05:27:50;;;;;;;15.95;11.80;;;;;;;;;;5036774;28;20111;-82
2021/05/31 05:30:19;;;;;;;14.25;10.85;;;;;;;;;;5035409;28;20049;-81
2021/05/31 05:32:49;;;;;;;13.35;10.57;;;;;;;;;;5037594;28;20428;-82
2021/05/31 05:35:26;;;;;;;16.05;11.77;;;;;;;;;;5037522;28;20077;-82
2021/05/31 05:43:41;;;;;;;14.38;10.15;;;;;;;;;;5027817;28;20038;-82
2021/05/31 05:48:47;;;;;;;11.35;9.98;;;;;;;;;;5015598;28;20422;-84
2021/05/31 05:51:14;;;;;;;12.80;9.85;;;;;;;;;;5017469;28;20057;-82
2021/05/31 05:53:42;;;;;;;16.23;10.30;;;;;;;;;;5016166;28;20134;-83
2021/05/31 05:56:14;;;;;;;13.70;10.18;;;;;;;;;;5028196;28;20046;-83
2021/05/31 05:58:52;;;;;;;14.13;10.75;;;;;;;;;;5036133;28;20055;-82
2021/05/31 06:01:20;;;;;;;14.15;9.95;;;;;;;;;;5030678;28;20432;-82
2021/05/31 06:03:51;;;;;;;12.50;11.10;;;;;;;;;;5030366;28;20052;-82
2021/05/31 06:06:19;;;;;;;16.17;9.88;;;;;;;;;;5040453;28;20075;-82
2021/05/31 06:08:49;;;;;;;15.43;9.80;;;;;;;;;;5040397;28;20052;-82
2021/05/31 06:11:17;;;;;;;12.07;9.20;;;;;;;;;;5042137;28;20076;-83
2021/05/31 06:13:43;;;;;;;18.83;10.10;;;;;;;;;;5030073;28;20390;-82
2021/05/31 06:16:11;;;;;;;15.10;9.32;;;;;;;;;;5033824;28;20049;-83
2021/05/31 06:18:38;;;;;;;11.57;8.77;;;;;;;;;;5037430;28;20260;-82
2021/05/31 06:21:05;;;;;;;11.23;8.70;;;;;;;;;;5036302;28;20053;-82
2021/05/31 06:23:32;;;;;;;9.57;8.27;;;;;;;;;;5034769;28;20099;-82
2021/05/31 06:25:59;;;;;;;9.45;7.32;;;;;;;;;;5042154;28;20157;-82
2021/05/31 06:28:26;;;;;;;9.45;7.53;;;;;;;;;;5051959;28;20045;-83
2021/05/31 06:31:27;;;;;;;10.23;7.18;;;;;;;;;;5045070;28;20046;-84
2021/05/31 06:33:54;;;;;;;9.13;6.25;;;;;;;;;;5037231;28;20626;-83
2021/05/31 06:36:21;;;;;;;10.82;6.90;;;;;;;;;;5039460;28;20077;-82
2021/05/31 06:38:51;;;;;;;7.03;5.00;;;;;;;;;;5037280;28;20041;-83
2021/05/31 06:41:18;;;;;;;9.50;5.25;;;;;;;;;;5037184;28;20045;-82
2021/05/31 06:43:45;;;;;;;6.70;5.07;;;;;;;;;;5036893;28;20122;-82
2021/05/31 06:46:16;;;;;;;9.23;5.20;;;;;;;;;;5036538;28;20076;-83
2021/05/31 06:48:43;;;;;;;7.05;3.95;;;;;;;;;;5032612;28;20124;-84
2021/05/31 06:51:09;;;;;;;8.95;4.55;;;;;;;;;;5029524;28;20050;-83
2021/05/31 06:53:40;;;;;;;10.10;4.55;;;;;;;;;;5032308;28;20195;-85
2021/05/31 06:56:06;;;;;;;8.02;4.43;;;;;;;;;;5033644;28;20063;-85
2021/05/31 06:58:37;;;;;;;8.20;4.70;;;;;;;;;;5021373;28;20064;-84
2021/05/31 07:01:09;;;;;;;14.48;4.78;;;;;;;;;;5031580;28;20083;-84
2021/05/31 07:03:37;;;;;;;10.95;3.90;;;;;;;;;;5036673;28;20045;-86
2021/05/31 07:06:09;;;;;;;9.27;3.53;;;;;;;;;;5040525;28;20107;-85
2021/05/31 07:08:35;;;;;;;7.22;3.47;;;;;;;;;;5036434;28;20061;-83
2021/05/31 07:11:10;;;;;;;11.30;3.80;;;;;;;;;;5035818;28;20045;-83
2021/05/31 07:13:37;;;;;;;8.25;2.90;;;;;;;;;;5036822;28;20118;-84
2021/05/31 07:16:04;;;;;;;6.22;3.22;;;;;;;;;;5032603;28;20067;-84
2021/05/31 07:18:32;;;;;;;5.03;2.47;;;;;;;;;;5037377;28;20570;-84
2021/05/31 07:21:00;;;;;;;7.80;2.72;;;;;;;;;;5038419;28;20073;-85
2021/05/31 07:23:27;;;;;;;9.95;4.05;;;;;;;;;;5036941;28;20084;-84
2021/05/31 07:25:54;;;;;;;8.52;3.40;;;;;;;;;;5040671;28;20135;-84
2021/05/31 07:28:21;;;;;;;9.82;3.53;;;;;;;;;;5039116;28;20218;-86
2021/05/31 07:30:48;;;;;;;9.43;3.50;;;;;;;;;;5034990;28;20056;-84
2021/05/31 07:33:14;;;;;;;8.52;3.30;;;;;;;;;;5035938;28;20070;-83
2021/05/31 07:35:41;;;;;;;5.93;2.80;;;;;;;;;;5036801;28;20435;-86
2021/05/31 07:38:08;;;;;;;7.95;2.95;;;;;;;;;;5037605;28;20117;-85
2021/05/31 07:40:39;;;;;;;7.47;3.25;;;;;;;;;;5032689;28;20107;-85
2021/05/31 07:43:06;;;;;;;7.30;2.80;;;;;;;;;;5028535;28;20433;-85
2021/05/31 07:45:32;;;;;;;4.25;2.17;;;;;;;;;;5038053;28;20539;-84
2021/05/31 07:47:59;;;;;;;5.97;2.15;;;;;;;;;;5033997;28;20054;-85
2021/05/31 07:50:25;;;;;;;4.93;2.28;;;;;;;;;;5032792;28;20148;-85
2021/05/31 07:52:53;;;;;;;4.10;2.47;;;;;;;;;;5039109;28;20125;-86
2021/05/31 07:55:20;;;;;;;3.08;1.90;;;;;;;;;;5042967;28;20308;-84
2021/05/31 07:57:47;;;;;;;6.63;2.28;;;;;;;;;;5040225;28;20308;-84
2021/05/31 08:00:16;;;;;;;5.00;1.85;;;;;;;;;;5039978;28;20084;-84
2021/05/31 08:02:44;;;;;;;3.42;1.60;;;;;;;;;;5042934;28;20080;-84
2021/05/31 08:05:15;;;;;;;6.45;1.75;;;;;;;;;;5042974;28;20060;-85
2021/05/31 08:07:43;;;;;;;4.43;1.73;;;;;;;;;;5046535;28;20049;-84
2021/05/31 08:10:11;;;;;;;5.80;1.48;;;;;;;;;;5041586;28;20052;-85
2021/05/31 08:12:42;;;;;;;3.25;1.70;;;;;;;;;;5040099;28;20164;-84
2021/05/31 08:15:12;;;;;;;5.47;1.67;;;;;;;;;;5037678;28;20048;-84
2021/05/31 08:17:41;;;;;;;6.07;1.75;;;;;;;;;;5043052;28;20067;-86
2021/05/31 08:20:09;;;;;;;4.43;2.08;;;;;;;;;;5041656;28;20100;-83
2021/05/31 08:22:41;;;;;;;4.45;1.80;;;;;;;;;;5039469;28;20064;-85
2021/05/31 08:25:11;;;;;;;3.70;1.85;;;;;;;;;;5037006;28;20076;-85
2021/05/31 08:27:38;;;;;;;6.28;1.80;;;;;;;;;;5042464;28;20077;-84
2021/05/31 08:30:08;;;;;;;4.25;1.70;;;;;;;;;;5049724;28;20048;-86
2021/05/31 08:33:01;;;;;;;2.85;1.85;;;;;;;;;;5041872;28;20063;-86
2021/05/31 08:35:28;;;;;;;3.63;2.15;;;;;;;;;;5032831;28;20053;-84
2021/05/31 08:37:58;;;;;;;5.15;1.88;;;;;;;;;;5040198;28;20057;-86
2021/05/31 08:40:25;;;;;;;6.57;2.30;;;;;;;;;;5031252;28;20076;-84
2021/05/31 08:42:51;;;;;;;4.80;2.55;;;;;;;;;;5035381;28;20320;-84
2021/05/31 08:45:25;;;;;;;3.72;1.85;;;;;;;;;;5037494;28;20136;-84
2021/05/31 08:47:53;;;;;;;4.40;1.70;;;;;;;;;;5037334;28;20045;-84
2021/05/31 08:50:21;;;;;;;2.90;1.63;;;;;;;;;;5036308;28;20041;-83
2021/05/31 08:52:50;;;;;;;3.83;1.80;;;;;;;;;;5035988;28;20132;-85
2021/05/31 08:55:18;;;;;;;5.65;1.75;;;;;;;;;;5033568;28;20049;-84
2021/05/31 08:57:45;;;;;;;5.35;1.70;;;;;;;;;;5028094;28;20045;-85
2021/05/31 09:00:14;;;;;;;2.92;1.40;;;;;;;;;;5034874;28;20068;-85
2021/05/31 09:02:43;;;;;;;6.57;1.90;;;;;;;;;;5033427;28;20164;-85
2021/05/31 09:05:10;;;;;;;5.05;2.03;;;;;;;;;;5037375;28;20045;-85
2021/05/31 09:07:37;;;;;;;5.68;1.98;;;;;;;;;;5039326;28;20049;-85
2021/05/31 09:10:05;;;;;;;7.65;2.20;;;;;;;;;;5034312;28;20132;-85
2021/05/31 09:12:35;;;;;;;5.13;1.95;;;;;;;;;;5040486;28;20045;-85
2021/05/31 09:15:10;;;;;;;5.97;2.35;;;;;;;;;;5044070;28;20033;-84
2021/05/31 09:17:40;;;;;;;6.43;2.17;;;;;;;;;;5045552;28;20045;-85
2021/05/31 09:20:07;;;;;;;3.83;2.15;;;;;;;;;;5044057;28;20065;-84
2021/05/31 09:22:48;;;;;;;5.47;2.15;;;;;;;;;;5036666;28;20060;-84
2021/05/31 09:25:25;;;;;;;3.88;2.08;;;;;;;;;;5034220;28;20497;-86
2021/05/31 09:27:53;;;;;;;7.25;2.83;;;;;;;;;;5028156;28;20218;-86
2021/05/31 09:30:31;;;;;;;5.43;1.88;;;;;;;;;;5034624;28;20065;-85
2021/05/31 09:32:58;;;;;;;9.75;2.42;;;;;;;;;;5034079;28;20045;-84
2021/05/31 09:35:26;;;;;;;5.25;2.50;;;;;;;;;;5018687;28;20057;-84
2021/05/31 09:37:53;;;;;;;5.78;2.42;;;;;;;;;;5032913;28;20041;-86
2021/05/31 09:40:25;;;;;;;4.82;2.50;;;;;;;;;;5033813;28;20072;-85
2021/05/31 09:42:54;;;;;;;5.13;2.17;;;;;;;;;;5029693;28;20060;-85
2021/05/31 09:45:21;;;;;;;5.88;2.80;;;;;;;;;;5037210;28;20041;-84
2021/05/31 09:47:52;;;;;;;6.07;2.92;;;;;;;;;;5044995;28;20033;-85
2021/05/31 09:50:24;;;;;;;5.57;2.47;;;;;;;;;;5045797;28;20065;-85
2021/05/31 09:53:11;;;;;;;4.93;2.75;;;;;;;;;;5018033;28;20050;-85
2021/05/31 09:55:39;;;;;;;5.80;3.05;;;;;;;;;;5014112;28;20112;-85
2021/05/31 09:58:07;;;;;;;8.85;3.25;;;;;;;;;;5013198;28;20299;-85
2021/05/31 10:00:33;;;;;;;9.57;2.72;;;;;;;;;;5013897;28;20052;-86
2021/05/31 10:03:16;;;;;;;4.32;2.47;;;;;;;;;;5032892;28;20049;-84
2021/05/31 10:10:45;;;;;;;3.80;2.35;;;;;;;;;;5031265;28;20042;-85
2021/05/31 10:13:11;;;;;;;7.20;2.47;;;;;;;;;;5034533;28;20053;-86
2021/05/31 10:15:42;;;;;;;6.93;2.45;;;;;;;;;;5032868;28;20105;-85
2021/05/31 10:18:10;;;;;;;5.72;2.92;;;;;;;;;;5038562;28;20056;-86
2021/05/31 10:20:38;;;;;;;5.70;2.42;;;;;;;;;;5036030;28;20104;-84
2021/05/31 10:23:09;;;;;;;3.97;2.67;;;;;;;;;;5039056;28;20049;-85
2021/05/31 10:25:39;;;;;;;5.97;2.60;;;;;;;;;;5033134;28;20377;-84
2021/05/31 10:28:07;;;;;;;5.40;2.28;;;;;;;;;;5032761;28;20061;-84
2021/05/31 10:30:42;;;;;;;5.63;2.80;;;;;;;;;;5030540;28;20061;-82
2021/05/31 10:33:13;;;;;;;6.35;2.65;;;;;;;;;;5028337;28;20049;-84
2021/05/31 10:35:40;;;;;;;5.50;2.67;;;;;;;;;;5028085;28;20080;-84
2021/05/31 10:38:11;;;;;;;7.88;2.80;;;;;;;;;;5030657;28;20045;-84
2021/05/31 10:40:44;;;;;;;4.13;2.30;;;;;;;;;;5029079;28;20264;-82
2021/05/31 10:43:12;;;;;;;6.65;2.58;;;;;;;;;;5028587;28;20347;-84
2021/05/31 10:45:39;;;;;;;4.13;2.42;;;;;;;;;;5028501;28;20037;-84
2021/05/31 10:48:16;;;;;;;7.68;2.45;;;;;;;;;;5029538;28;20104;-84
2021/05/31 10:50:51;;;;;;;4.10;2.50;;;;;;;;;;5033302;28;20248;-84
2021/05/31 10:53:18;;;;;;;5.32;2.55;;;;;;;;;;5029327;28;20055;-84
2021/05/31 10:55:49;;;;;;;3.67;2.20;;;;;;;;;;5032452;28;20049;-83
2021/05/31 10:58:21;;;;;;;2.92;2.08;;;;;;;;;;5026115;28;20049;-83
2021/05/31 11:00:52;;;;;;;3.38;2.00;;;;;;;;;;5028973;28;20049;-83
2021/05/31 11:03:19;;;;;;;6.00;2.10;;;;;;;;;;5019129;28;20056;-83
2021/05/31 11:05:46;;;;;;;5.88;2.20;;;;;;;;;;5030346;28;20100;-83
2021/05/31 11:08:23;;;;;;;3.90;2.17;;;;;;;;;;5026346;28;20046;-84
2021/05/31 11:10:55;;;;;;;3.25;1.60;;;;;;;;;;5029965;28;20050;-84
2021/05/31 11:13:21;;;;;;;4.70;1.90;;;;;;;;;;5026166;28;20061;-83
2021/05/31 11:16:08;;;;;;;4.07;2.13;;;;;;;;;;5027985;28;20107;-84
2021/05/31 11:18:40;;;;;;;4.25;1.90;;;;;;;;;;5025833;28;20277;-83
2021/05/31 11:21:07;;;;;;;4.55;2.00;;;;;;;;;;5028644;28;20139;-83
2021/05/31 11:23:39;;;;;;;5.35;2.10;;;;;;;;;;5028643;28;20052;-84
2021/05/31 11:26:06;;;;;;;5.20;2.15;;;;;;;;;;5028114;28;20132;-84
2021/05/31 11:28:33;;;;;;;5.10;1.95;;;;;;;;;;5036649;28;20045;-84
2021/05/31 11:31:00;;;;;;;6.38;2.30;;;;;;;;;;5033704;28;20056;-86
2021/05/31 11:33:32;;;;;;;4.72;2.10;;;;;;;;;;5033048;28;20049;-84
2021/05/31 11:35:59;;;;;;;5.65;2.33;;;;;;;;;;5037944;28;20089;-84
2021/05/31 11:38:29;;;;;;;5.18;2.20;;;;;;;;;;5045971;28;20064;-86
2021/05/31 11:40:56;;;;;;;9.93;2.60;;;;;;;;;;5043453;28;20057;-84
2021/05/31 11:43:26;;;;;;;3.85;2.08;;;;;;;;;;5043782;28;20029;-86
2021/05/31 11:45:54;;;;;;;3.60;1.83;;;;;;;;;;5043792;28;20107;-84
2021/05/31 11:48:24;;;;;;;4.43;2.05;;;;;;;;;;5038955;28;20049;-86
2021/05/31 11:51:15;;;;;;;3.28;1.95;;;;;;;;;;5030939;28;20837;-83
2021/05/31 11:53:46;;;;;;;4.30;2.03;;;;;;;;;;5036592;28;20149;-84
2021/05/31 11:56:13;;;;;;;3.50;1.88;;;;;;;;;;5010112;28;20061;-84
2021/05/31 11:58:42;;;;;;;3.10;1.90;;;;;;;;;;5037267;28;20445;-84
2021/05/31 12:01:12;;;;;;;3.00;2.08;;;;;;;;;;5035847;28;20056;-83
2021/05/31 12:03:39;;;;;;;7.93;2.58;;;;;;;;;;5037786;28;20104;-84
2021/05/31 12:06:10;;;;;;;5.03;2.10;;;;;;;;;;5030161;28;20255;-83
2021/05/31 12:08:41;;;;;;;5.15;1.83;;;;;;;;;;5031374;28;20509;-84
2021/05/31 12:11:07;;;;;;;4.25;2.03;;;;;;;;;;5033920;28;20057;-83
2021/05/31 12:13:34;;;;;;;4.18;2.25;;;;;;;;;;5032876;28;20117;-83
2021/05/31 12:16:12;;;;;;;4.15;1.90;;;;;;;;;;5032833;28;20132;-83
2021/05/31 12:18:39;;;;;;;8.10;2.05;;;;;;;;;;5032597;28;20053;-84
2021/05/31 12:21:06;;;;;;;4.70;2.35;;;;;;;;;;5031524;28;20589;-84
2021/05/31 12:23:34;;;;;;;4.70;2.13;;;;;;;;;;5033542;28;20193;-85
2021/05/31 12:26:06;;;;;;;3.28;2.08;;;;;;;;;;5032467;28;20115;-83
2021/05/31 12:28:34;;;;;;;4.07;2.53;;;;;;;;;;5026791;28;20192;-83
2021/05/31 12:31:02;;;;;;;4.80;2.28;;;;;;;;;;5033891;28;20058;-84
2021/05/31 12:33:28;;;;;;;2.97;2.03;;;;;;;;;;5031963;28;20049;-84
2021/05/31 12:36:06;;;;;;;5.97;2.50;;;;;;;;;;5031079;28;20409;-82
2021/05/31 12:38:38;;;;;;;3.88;2.20;;;;;;;;;;5032343;28;20068;-84
2021/05/31 12:41:22;;;;;;;7.07;1.88;;;;;;;;;;5031990;28;20511;-84
2021/05/31 12:43:48;;;;;;;3.60;2.20;;;;;;;;;;5034138;28;20037;-85
2021/05/31 12:46:17;;;;;;;5.93;2.35;;;;;;;;;;5034328;28;20053;-83
2021/05/31 12:48:49;;;;;;;11.90;1.95;;;;;;;;;;5035030;28;20076;-84
2021/05/31 12:51:16;;;;;;;8.05;2.15;;;;;;;;;;5029236;28;20041;-84
2021/05/31 12:53:45;;;;;;;7.65;2.30;;;;;;;;;;5042179;28;20049;-83
2021/05/31 12:56:12;;;;;;;4.70;2.42;;;;;;;;;;5039708;28;20280;-85
2021/05/31 12:59:03;;;;;;;9.07;2.00;;;;;;;;;;5033492;28;20080;-83
2021/05/31 13:01:31;;;;;;;8.48;2.20;;;;;;;;;;5027589;28;20181;-83
2021/05/31 13:03:58;;;;;;;5.78;2.38;;;;;;;;;;5032746;28;20057;-84
2021/05/31 13:06:32;;;;;;;3.08;2.22;;;;;;;;;;5037110;28;20052;-83
2021/05/31 13:08:59;;;;;;;6.75;2.40;;;;;;;;;;5046848;28;20057;-85
2021/05/31 13:11:37;;;;;;;6.32;1.98;;;;;;;;;;5043222;28;20417;-84
2021/05/31 13:14:38;;;;;;;4.05;2.17;;;;;;;;;;5030226;28;20057;-86
2021/05/31 13:17:05;;;;;;;3.40;2.10;;;;;;;;;;5032693;28;20045;-83
2021/05/31 13:19:35;;;;;;;2.95;2.00;;;;;;;;;;5030790;28;20405;-83
2021/05/31 13:22:04;;;;;;;6.85;1.92;;;;;;;;;;5033763;28;20057;-85
2021/05/31 13:24:57;;;;;;;4.97;2.05;;;;;;;;;;5031141;28;20212;-84
2021/05/31 13:27:30;;;;;;;5.65;2.53;;;;;;;;;;5025028;28;20049;-84
2021/05/31 13:30:14;;;;;;;5.40;2.20;;;;;;;;;;5031725;28;20057;-84
2021/05/31 13:32:51;;;;;;;7.28;2.28;;;;;;;;;;5031762;28;20425;-83
2021/05/31 13:35:18;;;;;;;4.47;1.90;;;;;;;;;;5029211;28;20105;-85
2021/05/31 13:37:50;;;;;;;9.27;2.25;;;;;;;;;;5033323;28;20117;-84
2021/05/31 13:40:17;;;;;;;3.17;1.98;;;;;;;;;;5034806;28;20048;-84
2021/05/31 13:42:54;;;;;;;4.53;2.17;;;;;;;;;;5039945;28;20069;-85
2021/05/31 13:45:22;;;;;;;4.47;2.20;;;;;;;;;;5027510;28;20254;-84
2021/05/31 13:47:48;;;;;;;5.68;2.40;;;;;;;;;;5035321;28;20096;-83
2021/05/31 13:50:20;;;;;;;6.30;2.20;;;;;;;;;;5033488;28;20025;-85
2021/05/31 13:52:46;;;;;;;6.57;2.30;;;;;;;;;;5032494;28;20073;-83
2021/05/31 13:55:35;;;;;;;4.63;2.35;;;;;;;;;;5034615;28;20085;-86
2021/05/31 13:58:04;;;;;;;5.13;2.30;;;;;;;;;;5035001;28;20422;-84
2021/05/31 14:00:33;;;;;;;3.42;1.98;;;;;;;;;;5036399;28;20080;-84
2021/05/31 14:03:10;;;;;;;4.60;2.00;;;;;;;;;;5034773;28;20046;-85
2021/05/31 14:05:38;;;;;;;5.90;2.28;;;;;;;;;;5030354;28;20048;-84
2021/05/31 14:08:06;;;;;;;8.75;2.10;;;;;;;;;;5030912;28;20053;-83
2021/05/31 14:10:38;;;;;;;4.30;2.10;;;;;;;;;;5033679;28;20057;-85
2021/05/31 14:13:06;;;;;;;4.68;2.00;;;;;;;;;;5030769;28;20092;-85
2021/05/31 14:15:36;;;;;;;4.78;1.90;;;;;;;;;;5032593;28;20076;-83
2021/05/31 14:18:12;;;;;;;3.35;2.03;;;;;;;;;;5029855;28;20049;-83
2021/05/31 14:20:39;;;;;;;3.38;1.83;;;;;;;;;;5034425;28;20203;-83
2021/05/31 14:23:06;;;;;;;5.60;2.20;;;;;;;;;;5032441;28;20057;-83
2021/05/31 14:25:34;;;;;;;3.53;2.08;;;;;;;;;;5029678;28;20100;-83
2021/05/31 14:28:02;;;;;;;8.43;2.30;;;;;;;;;;5031920;28;20053;-83
2021/05/31 14:30:32;;;;;;;4.70;2.28;;;;;;;;;;5028496;28;20041;-83
2021/05/31 14:33:01;;;;;;;4.15;1.85;;;;;;;;;;5030769;28;20120;-85
2021/05/31 14:35:30;;;;;;;5.22;2.20;;;;;;;;;;5025580;28;20273;-84
2021/05/31 14:37:58;;;;;;;4.40;2.33;;;;;;;;;;5028779;28;20163;-84
2021/05/31 14:40:25;;;;;;;4.35;2.53;;;;;;;;;;5026851;28;20075;-84
2021/05/31 14:42:54;;;;;;;6.00;2.30;;;;;;;;;;5035513;28;20061;-85
2021/05/31 14:45:21;;;;;;;5.90;2.45;;;;;;;;;;5039050;28;20145;-83
2021/05/31 14:47:51;;;;;;;6.93;2.20;;;;;;;;;;5040061;28;20068;-84
2021/05/31 14:50:18;;;;;;;5.75;2.40;;;;;;;;;;5036555;28;20260;-84
2021/05/31 14:52:45;;;;;;;3.92;2.03;;;;;;;;;;5027511;28;20049;-85
2021/05/31 14:55:14;;;;;;;4.65;2.78;;;;;;;;;;5022821;28;20077;-83
2021/05/31 14:57:41;;;;;;;4.47;2.50;;;;;;;;;;5029707;28;20059;-83
2021/05/31 15:00:10;;;;;;;6.10;2.42;;;;;;;;;;5029021;28;20224;-83
2021/05/31 15:02:40;;;;;;;3.22;2.13;;;;;;;;;;5029205;28;20120;-84